Time;durP1;ratioP1;P1;durP2;ratioP2;P2;SDS_P1;SDS_P2;PMS_P1;PMS_P2;Temp;Humidity;BMP_temperature;BMP_pressure;BME280_temperature;BME280_humidity;BME280_pressure;Samples;Min_cycle;Max_cycle;Signal;HPM_P1;HPM_P2
2022/09/19 00:04:27;;;;;;;4.42;2.98;;;;;;;10.23;78.18;99334.31;3606331;77;21006;-85
2022/09/19 00:09:23;;;;;;;9.25;3.08;;;;;;;10.23;78.18;99334.31;3614616;77;20926;-85
2022/09/19 00:14:19;;;;;;;6.60;3.58;;;;;;;10.10;78.32;99332.61;3596269;77;20939;-85
2022/09/19 00:19:15;;;;;;;5.62;2.77;;;;;;;10.10;78.32;99332.61;3616833;77;20989;-84
2022/09/19 00:29:24;;;;;;;5.15;2.40;;;;;;;10.03;78.19;99327.00;3605313;77;21017;-85
2022/09/19 00:34:17;;;;;;;4.62;2.85;;;;;;;9.99;77.95;99339.13;3558517;77;20936;-85
2022/09/19 00:39:11;;;;;;;5.15;2.58;;;;;;;9.99;77.95;99339.13;3610998;77;22053;-85
2022/09/19 00:44:25;;;;;;;4.03;2.83;;;;;;;9.90;77.76;99333.97;3513095;79;20912;-86
2022/09/19 00:49:18;;;;;;;5.22;2.98;;;;;;;9.83;77.68;99328.36;3449182;81;21009;-85
2022/09/19 00:54:17;;;;;;;3.52;2.12;;;;;;;9.77;77.76;99331.84;3470122;80;20996;-86
2022/09/19 00:59:09;;;;;;;4.40;2.40;;;;;;;9.74;77.90;99338.33;3512348;80;20969;-85
2022/09/19 01:04:01;;;;;;;4.08;2.30;;;;;;;9.69;77.90;99337.46;3478207;78;21204;-86
2022/09/19 01:09:24;;;;;;;6.75;2.45;;;;;;;9.63;77.66;99328.41;3441464;80;21004;-85
2022/09/19 01:14:53;;;;;;;5.78;2.33;;;;;;;9.63;77.66;99328.41;3520110;80;21257;-86
2022/09/19 01:20:19;;;;;;;2.85;1.90;;;;;;;9.63;77.93;99333.59;3493656;80;20898;-86
2022/09/19 01:25:31;;;;;;;4.50;2.37;;;;;;;9.54;77.80;99330.13;3552166;77;20972;-87
2022/09/19 01:30:21;;;;;;;3.55;2.40;;;;;;;9.50;77.85;99336.64;3655348;77;21100;-86
2022/09/19 01:35:15;;;;;;;4.95;2.50;;;;;;;9.50;77.85;99336.64;3627383;76;20941;-87
2022/09/19 01:40:11;;;;;;;5.25;3.00;;;;;;;9.44;77.78;99325.80;3622277;77;21259;-86
2022/09/19 01:45:09;;;;;;;5.62;2.90;;;;;;;9.48;77.96;99339.67;3560024;77;20930;-87
2022/09/19 01:50:31;;;;;;;5.13;2.53;;;;;;;9.41;77.65;99340.51;3684057;77;21044;-86
2022/09/19 01:55:41;;;;;;;5.12;2.77;;;;;;;9.28;77.57;99338.35;3651755;77;21468;-86
2022/09/19 02:00:37;;;;;;;4.90;2.87;;;;;;;9.14;77.58;99338.37;3614743;77;21445;-86
2022/09/19 02:05:50;;;;;;;8.10;3.70;;;;;;;9.02;77.77;99346.98;3523228;79;22039;-85
2022/09/19 02:10:48;;;;;;;5.97;3.15;;;;;;;9.00;77.89;99352.61;3598546;77;20911;-87
2022/09/19 02:15:47;;;;;;;5.80;3.10;;;;;;;8.98;77.98;99351.74;3587921;78;20950;-85
2022/09/19 02:20:42;;;;;;;6.25;3.22;;;;;;;8.93;77.90;99352.16;3588665;78;21027;-86
2022/09/19 02:25:35;;;;;;;5.70;3.00;;;;;;;8.86;77.98;99358.20;3606883;78;21095;-85
2022/09/19 02:30:27;;;;;;;5.53;2.98;;;;;;;8.81;77.92;99361.20;3568630;77;20930;-86
2022/09/19 02:35:34;;;;;;;5.03;3.22;;;;;;;8.74;77.92;99364.20;3572024;79;21469;-87
2022/09/19 02:40:35;;;;;;;6.15;3.00;;;;;;;8.59;77.90;99364.59;3620502;77;21421;-85
2022/09/19 02:45:44;;;;;;;7.83;3.30;;;;;;;8.43;78.40;99365.84;3588296;78;21562;-87
2022/09/19 02:50:59;;;;;;;5.65;3.30;;;;;;;8.41;78.24;99368.39;3527990;79;21532;-86
2022/09/19 02:55:57;;;;;;;6.03;3.52;;;;;;;8.41;78.24;99368.39;3598045;77;20903;-86
2022/09/19 03:00:53;;;;;;;9.93;3.53;;;;;;;8.37;78.39;99361.03;3613552;77;20907;-86
2022/09/19 03:05:46;;;;;;;5.78;3.05;;;;;;;8.35;78.31;99364.46;3649432;76;20966;-86
2022/09/19 03:10:42;;;;;;;4.80;2.85;;;;;;;8.29;78.38;99361.42;3587198;77;22083;-86
2022/09/19 03:15:49;;;;;;;5.20;2.77;;;;;;;8.26;78.60;99363.98;3623592;77;21224;-86
2022/09/19 03:20:55;;;;;;;4.57;2.97;;;;;;;8.23;78.53;99367.87;3657067;77;20894;-86
2022/09/19 03:25:46;;;;;;;5.50;3.33;;;;;;;8.17;78.73;99376.89;3595500;77;21421;-87
2022/09/19 03:30:38;;;;;;;5.85;3.22;;;;;;;8.16;78.87;99383.80;3553605;77;21425;-87
2022/09/19 03:35:29;;;;;;;5.53;3.17;;;;;;;8.20;78.90;99382.09;3558720;77;21409;-86
2022/09/19 03:40:22;;;;;;;3.47;3.00;;;;;;;8.16;78.71;99384.23;3584011;77;21451;-86
2022/09/19 03:45:14;;;;;;;9.25;3.60;;;;;;;8.19;79.07;99384.23;3611162;77;21358;-86
2022/09/19 03:50:06;;;;;;;5.90;3.98;;;;;;;8.23;78.94;99386.41;3533466;79;21446;-86
2022/09/19 03:54:59;;;;;;;6.25;4.20;;;;;;;8.22;79.11;99386.84;3500920;78;21509;-86
2022/09/19 03:59:51;;;;;;;8.13;3.98;;;;;;;8.22;79.11;99386.84;3654685;77;21554;-87
2022/09/19 04:04:44;;;;;;;6.22;4.75;;;;;;;8.24;78.89;99392.89;3547898;76;21069;-86
2022/09/19 04:09:35;;;;;;;6.17;4.20;;;;;;;8.25;79.05;99400.25;3614207;77;20972;-86
2022/09/19 04:14:28;;;;;;;8.13;4.90;;;;;;;8.28;79.08;99407.61;3649949;76;21291;-87
2022/09/19 04:19:19;;;;;;;6.22;3.95;;;;;;;8.31;79.07;99402.86;3587127;77;21235;-86
2022/09/19 04:24:15;;;;;;;6.28;4.30;;;;;;;8.31;79.05;99413.22;3612697;77;20974;-86
2022/09/19 04:29:20;;;;;;;11.18;4.50;;;;;;;8.30;79.02;99420.14;3424243;82;21034;-86
2022/09/19 04:34:14;;;;;;;5.33;4.83;;;;;;;8.31;79.31;99419.26;3393718;82;21018;-86
2022/09/19 04:39:06;;;;;;;7.17;6.47;;;;;;;8.33;79.25;99427.05;3371353;82;20915;-86
2022/09/19 04:44:01;;;;;;;6.65;5.97;;;;;;;8.26;79.14;99407.15;3348418;83;20989;-85
2022/09/19 04:49:04;;;;;;;8.53;6.28;;;;;;;8.33;79.00;99433.08;3368966;82;20986;-86
2022/09/19 04:53:57;;;;;;;7.62;6.47;;;;;;;8.36;79.00;99429.22;3394179;82;21016;-86
2022/09/19 04:58:48;;;;;;;8.03;6.85;;;;;;;8.39;79.03;99427.95;3397060;82;21800;-85
2022/09/19 05:03:43;;;;;;;10.05;7.00;;;;;;;8.45;79.00;99431.47;3483966;77;21531;-85
2022/09/19 05:08:34;;;;;;;10.05;8.23;;;;;;;8.48;78.93;99441.41;3595535;77;21009;-86
2022/09/19 05:13:34;;;;;;;8.65;7.65;;;;;;;8.51;78.89;99440.55;3618365;77;21001;-85
2022/09/19 05:18:26;;;;;;;9.48;8.55;;;;;;;8.53;78.61;99447.89;3608151;76;20939;-86
2022/09/19 05:23:18;;;;;;;11.63;8.78;;;;;;;8.51;78.64;99441.84;3555140;76;21030;-85
2022/09/19 05:28:10;;;;;;;11.65;9.50;;;;;;;8.58;78.62;99450.08;3596923;77;21775;-86
2022/09/19 05:33:03;;;;;;;12.93;9.23;;;;;;;8.65;78.47;99449.25;3574491;77;21536;-86
2022/09/19 05:37:59;;;;;;;10.25;9.10;;;;;;;8.66;78.37;99458.77;3535386;77;24984;-85
2022/09/19 05:43:09;;;;;;;9.35;8.08;;;;;;;8.77;78.18;99460.97;3557651;78;20982;-87
2022/09/19 05:48:04;;;;;;;10.50;8.38;;;;;;;8.80;78.08;99470.91;3557383;78;21451;-87
2022/09/19 05:58:08;;;;;;;10.10;9.10;;;;;;;8.94;78.02;99477.01;3583708;77;20989;-86
2022/09/19 06:03:03;;;;;;;11.25;10.05;;;;;;;9.09;77.72;99487.45;3582714;78;21234;-87
2022/09/19 06:07:56;;;;;;;13.03;9.65;;;;;;;9.13;77.60;99487.88;3546925;78;21033;-86
2022/09/19 06:12:47;;;;;;;12.85;10.18;;;;;;;9.16;77.30;99487.90;3616732;77;20926;-86
2022/09/19 06:17:39;;;;;;;11.20;10.03;;;;;;;9.26;77.64;99498.30;3624201;77;20979;-86
2022/09/19 06:22:35;;;;;;;11.60;9.55;;;;;;;9.33;77.42;99497.01;3629139;77;20908;-86
2022/09/19 06:27:30;;;;;;;11.38;10.00;;;;;;;9.41;76.87;99507.84;3645972;75;20978;-87
2022/09/19 06:32:23;;;;;;;12.70;10.30;;;;;;;9.41;76.87;99507.84;3576727;77;20942;-86
2022/09/19 06:37:19;;;;;;;8.35;7.55;;;;;;;9.69;76.60;99513.54;3616867;76;20899;-87
2022/09/19 06:42:10;;;;;;;9.83;7.62;;;;;;;9.69;76.60;99513.54;3535791;77;21005;-86
2022/09/19 06:47:04;;;;;;;10.78;8.55;;;;;;;9.76;76.17;99526.07;3653674;77;21543;-86
2022/09/19 06:52:00;;;;;;;9.85;8.85;;;;;;;9.76;76.17;99526.07;3587927;77;20943;-86
2022/09/19 06:56:51;;;;;;;9.30;8.43;;;;;;;10.03;76.44;99533.45;3588640;76;20959;-85
2022/09/19 07:01:48;;;;;;;10.00;8.73;;;;;;;9.95;76.00;99539.09;3631932;77;21044;-86
2022/09/19 07:06:37;;;;;;;9.53;8.63;;;;;;;9.95;76.00;99539.09;3614740;77;20966;-85
2022/09/19 07:11:30;;;;;;;9.98;8.98;;;;;;;9.93;76.25;99538.64;3575439;77;20943;-87
2022/09/19 07:16:22;;;;;;;7.95;7.15;;;;;;;9.92;76.30;99547.72;3588671;77;22056;-85
2022/09/19 07:21:14;;;;;;;8.78;8.00;;;;;;;9.99;76.69;99552.05;3545928;77;20931;-86
2022/09/19 07:26:07;;;;;;;11.10;9.65;;;;;;;10.06;76.68;99568.52;3639048;77;21499;-86
2022/09/19 07:31:01;;;;;;;9.38;8.48;;;;;;;10.05;76.78;99570.67;3586838;77;20939;-86
2022/09/19 07:35:55;;;;;;;9.63;7.85;;;;;;;10.06;76.74;99587.55;3595435;77;21056;-87
2022/09/19 07:40:47;;;;;;;10.25;8.65;;;;;;;10.00;76.15;99576.31;3582274;77;21089;-87
2022/09/19 07:45:49;;;;;;;10.23;8.83;;;;;;;10.02;76.28;99592.32;3551714;78;21549;-85
2022/09/19 07:50:58;;;;;;;9.40;8.00;;;;;;;10.07;75.84;99598.83;3578683;77;20978;-85
2022/09/19 07:55:54;;;;;;;11.60;9.35;;;;;;;10.07;75.84;99598.83;3583705;77;20989;-86
2022/09/19 08:00:46;;;;;;;9.38;8.38;;;;;;;10.04;75.85;99604.02;3566224;77;21096;-84
2022/09/19 08:05:43;;;;;;;9.03;8.18;;;;;;;10.01;75.92;99607.89;3543528;77;20986;-84
2022/09/19 08:10:35;;;;;;;10.25;7.80;;;;;;;9.91;76.00;99621.31;3532422;77;21988;-87
2022/09/19 08:15:26;;;;;;;10.60;9.50;;;;;;;9.86;76.38;99622.58;3488428;78;21048;-85
2022/09/19 08:20:19;;;;;;;13.13;8.68;;;;;;;9.93;76.68;99619.13;3566129;78;20959;-85
2022/09/19 08:25:11;;;;;;;10.28;9.18;;;;;;;9.95;76.70;99629.53;3533350;78;20969;-85
2022/09/19 08:30:04;;;;;;;12.07;9.28;;;;;;;9.82;76.87;99628.64;3540943;78;21519;-86
2022/09/19 08:34:55;;;;;;;8.78;7.97;;;;;;;9.91;77.26;99639.04;3509109;78;21019;-85
2022/09/19 08:45:10;;;;;;;9.10;7.90;;;;;;;9.93;77.33;99646.39;3513747;79;21022;-84
2022/09/19 08:50:18;;;;;;;12.23;9.70;;;;;;;9.88;77.45;99654.59;3587790;77;20960;-83
2022/09/19 08:55:17;;;;;;;7.00;6.40;;;;;;;9.97;78.00;99651.16;3541080;77;21299;-84
2022/09/19 09:00:20;;;;;;;10.82;8.53;;;;;;;10.13;77.96;99653.37;3603766;77;20943;-85
2022/09/19 09:05:17;;;;;;;9.05;8.15;;;;;;;10.21;77.61;99650.36;3510957;79;20978;-85
2022/09/19 09:10:47;;;;;;;12.37;7.97;;;;;;;10.16;77.85;99643.40;3545579;79;20951;-85
2022/09/19 09:15:58;;;;;;;9.80;8.80;;;;;;;10.15;77.83;99667.22;3627402;77;20892;-87
2022/09/19 09:21:19;;;;;;;9.28;7.85;;;;;;;9.91;78.12;99677.12;3544537;79;21178;-87
2022/09/19 09:26:25;;;;;;;6.90;6.30;;;;;;;9.89;78.70;99674.93;3626257;77;21001;-86
2022/09/19 09:31:40;;;;;;;9.73;7.12;;;;;;;9.79;78.52;99675.78;3561592;79;20963;-85
2022/09/19 09:37:05;;;;;;;8.80;6.83;;;;;;;9.76;78.78;99679.22;3578878;79;20927;-83
2022/09/19 09:42:01;;;;;;;8.00;7.30;;;;;;;9.63;78.39;99683.94;3491953;81;20951;-87
2022/09/19 09:47:14;;;;;;;9.30;8.38;;;;;;;9.63;78.89;99687.84;3447084;81;22314;-88
2022/09/19 09:52:28;;;;;;;8.73;7.92;;;;;;;9.63;78.87;99687.84;3430204;81;20976;-89
2022/09/19 09:57:43;;;;;;;9.98;9.08;;;;;;;9.86;79.24;99695.27;3450587;81;21437;-86
2022/09/19 10:08:19;;;;;;;8.55;7.75;;;;;;;10.00;78.68;99699.66;3447301;80;20971;-89
2022/09/19 10:13:25;;;;;;;9.75;8.85;;;;;;;10.04;78.93;99709.19;3509137;79;22173;-86
2022/09/19 10:18:18;;;;;;;9.68;8.78;;;;;;;10.03;78.82;99708.33;3596053;76;20926;-84
2022/09/19 10:23:26;;;;;;;8.85;7.95;;;;;;;10.02;79.06;99699.23;3561164;77;21615;-88
2022/09/19 10:28:37;;;;;;;9.08;8.20;;;;;;;10.18;78.63;99720.48;3504594;77;20970;-89
2022/09/19 10:33:47;;;;;;;8.17;7.37;;;;;;;10.26;78.84;99725.25;3593024;77;21970;-85
2022/09/19 10:38:54;;;;;;;8.25;7.53;;;;;;;10.42;78.81;99734.42;3532408;77;21984;-88
2022/09/19 10:43:52;;;;;;;8.58;7.80;;;;;;;10.63;78.48;99731.84;3549230;78;20969;-87
2022/09/19 10:48:58;;;;;;;7.22;6.62;;;;;;;10.65;78.35;99739.21;3590245;77;21018;-83
2022/09/19 10:53:56;;;;;;;7.75;6.75;;;;;;;10.65;78.35;99739.21;3507230;79;20930;-85
2022/09/19 10:58:48;;;;;;;6.40;5.80;;;;;;;10.71;78.29;99734.89;3521394;78;20952;-84
2022/09/19 11:03:46;;;;;;;7.30;6.60;;;;;;;10.74;77.73;99748.75;3578574;76;20975;-87
2022/09/19 11:08:44;;;;;;;6.17;5.67;;;;;;;10.73;77.66;99746.15;3572568;77;28725;-86
2022/09/19 11:13:39;;;;;;;6.53;5.67;;;;;;;10.86;78.20;99746.61;3563970;77;20974;-86
2022/09/19 11:18:46;;;;;;;5.90;5.37;;;;;;;11.00;77.87;99747.47;3572848;77;20943;-84
2022/09/19 11:24:12;;;;;;;5.00;4.55;;;;;;;11.00;77.87;99747.47;3634250;77;20958;-87
2022/09/19 11:29:30;;;;;;;5.17;4.78;;;;;;;10.90;78.09;99741.83;3632761;77;21197;-84
2022/09/19 11:34:30;;;;;;;6.97;4.95;;;;;;;10.88;78.23;99750.07;3608401;77;20983;-84
2022/09/19 11:39:38;;;;;;;5.33;4.65;;;;;;;10.88;78.27;99753.97;3607820;77;21003;-86
2022/09/19 11:44:52;;;;;;;5.62;4.70;;;;;;;10.91;78.17;99753.98;3557716;78;21460;-83
2022/09/19 11:50:20;;;;;;;3.92;3.52;;;;;;;10.84;78.04;99758.75;3518950;78;20950;-82
2022/09/19 11:55:46;;;;;;;4.63;3.83;;;;;;;10.89;77.97;99762.19;3540029;78;21322;-84
2022/09/19 12:00:46;;;;;;;5.35;4.08;;;;;;;10.98;77.80;99760.91;3608779;77;20947;-85
2022/09/19 12:06:05;;;;;;;6.40;4.00;;;;;;;11.08;77.69;99766.11;3560805;78;21028;-83
2022/09/19 12:11:08;;;;;;;7.83;3.95;;;;;;;11.12;77.54;99763.93;3556944;79;21832;-85
2022/09/19 12:16:04;;;;;;;4.10;3.70;;;;;;;11.24;77.74;99767.83;3633503;77;21020;-85
2022/09/19 12:20:58;;;;;;;4.08;3.17;;;;;;;11.30;77.48;99765.20;3595476;78;21895;-84
2022/09/19 12:25:55;;;;;;;4.28;3.47;;;;;;;11.20;76.74;99768.71;3553217;77;20969;-85
2022/09/19 12:30:52;;;;;;;3.98;3.10;;;;;;;11.17;77.10;99771.30;3622644;77;20895;-85
2022/09/19 12:36:07;;;;;;;5.63;3.23;;;;;;;11.12;77.04;99769.14;3549347;78;20974;-86
2022/09/19 12:41:20;;;;;;;4.33;3.33;;;;;;;11.08;76.52;99784.32;3604648;77;21517;-84
2022/09/19 12:46:55;;;;;;;3.72;2.92;;;;;;;10.96;76.51;99780.83;3558394;79;21171;-84
2022/09/19 12:52:04;;;;;;;5.83;3.33;;;;;;;11.04;75.90;99786.91;3566633;78;20955;-83
2022/09/19 12:57:24;;;;;;;3.63;3.07;;;;;;;11.04;75.51;99792.12;3602092;77;20935;-86
2022/09/19 13:02:28;;;;;;;4.15;3.22;;;;;;;11.05;75.36;99792.56;3609522;77;21041;-82
2022/09/19 13:07:46;;;;;;;3.67;3.25;;;;;;;11.08;75.89;99793.42;3600012;77;21446;-83
2022/09/19 13:12:53;;;;;;;;;;;;;;;11.04;75.90;99796.02;3575099;78;21550;-85
2022/09/19 13:28:26;;;;;;;3.83;2.70;;;;;;;10.81;75.72;99810.73;3589804;77;20954;-86
2022/09/19 13:33:26;;;;;;;2.77;2.00;;;;;;;10.86;75.58;99808.58;3610005;77;21462;-84
2022/09/19 13:38:29;;;;;;;4.35;2.67;;;;;;;10.93;74.81;99818.97;3613987;77;21034;-84
2022/09/19 13:43:24;;;;;;;2.50;2.25;;;;;;;10.83;75.06;99815.06;3612171;77;20992;-89
2022/09/19 13:48:33;;;;;;;5.90;3.30;;;;;;;10.84;75.54;99823.75;3602841;77;20977;-88
2022/09/19 13:53:43;;;;;;;3.45;2.77;;;;;;;10.82;76.08;99834.56;3614303;77;21034;-89
2022/09/19 13:58:39;;;;;;;5.10;3.77;;;;;;;10.81;76.30;99826.34;3626962;77;20947;-88
2022/09/19 14:03:35;;;;;;;3.60;3.30;;;;;;;10.71;76.60;99834.98;3502674;78;26188;-87
2022/09/19 14:08:34;;;;;;;5.17;3.80;;;;;;;10.72;76.83;99843.23;3520035;78;21445;-87
2022/09/19 14:13:35;;;;;;;2.45;2.25;;;;;;;10.69;76.50;99838.88;3543949;78;22273;-85
2022/09/19 14:18:42;;;;;;;3.20;2.35;;;;;;;10.62;76.11;99836.71;3587223;78;20959;-84
2022/09/19 14:23:44;;;;;;;3.17;2.83;;;;;;;10.57;76.15;99843.63;3575672;78;20896;-86
2022/09/19 14:29:23;;;;;;;3.20;2.62;;;;;;;10.56;76.62;99840.58;3550149;77;21426;-83
2022/09/19 14:34:41;;;;;;;4.22;2.35;;;;;;;10.58;76.49;99846.64;3586656;78;20950;-86
2022/09/19 14:39:55;;;;;;;6.55;2.87;;;;;;;10.55;75.92;99849.25;3584473;77;20989;-84
2022/09/19 14:45:12;;;;;;;3.17;2.72;;;;;;;10.49;76.33;99849.22;3583758;78;21436;-85
2022/09/19 14:50:14;;;;;;;5.55;2.67;;;;;;;10.42;76.53;99848.75;3569362;78;21642;-83
2022/09/19 14:55:15;;;;;;;4.30;3.15;;;;;;;10.40;76.85;99851.78;3539692;78;21611;-82
2022/09/19 15:00:28;;;;;;;3.90;2.92;;;;;;;10.36;77.12;99844.85;3596003;78;20965;-87
2022/09/19 15:05:30;;;;;;;4.60;3.90;;;;;;;10.37;77.62;99850.47;3533410;78;21061;-87
2022/09/19 15:10:37;;;;;;;8.10;4.58;;;;;;;10.37;77.73;99849.17;3561351;78;20934;-86
2022/09/19 15:15:31;;;;;;;5.45;4.35;;;;;;;10.30;77.87;99853.02;3583179;78;20906;-86
2022/09/19 15:20:23;;;;;;;6.55;4.62;;;;;;;10.24;78.12;99849.08;3547679;78;21480;-86
2022/09/19 15:25:35;;;;;;;5.90;4.80;;;;;;;10.33;78.55;99857.82;3514894;77;20967;-88
2022/09/19 15:30:32;;;;;;;6.40;5.22;;;;;;;10.33;78.55;99857.82;3628450;77;21261;-84
2022/09/19 15:35:27;;;;;;;6.30;5.70;;;;;;;10.30;79.22;99859.52;3631028;77;21515;-83
2022/09/19 15:40:26;;;;;;;6.97;5.58;;;;;;;10.30;79.24;99858.22;3539244;78;20974;-81
2022/09/19 15:45:43;;;;;;;7.55;5.87;;;;;;;10.26;79.23;99864.23;3565165;78;21946;-83
2022/09/19 15:50:42;;;;;;;7.00;6.17;;;;;;;10.13;79.50;99865.05;3589921;77;20917;-82
2022/09/19 15:55:33;;;;;;;6.97;6.28;;;;;;;10.13;79.80;99874.14;3572876;78;21464;-83
2022/09/19 16:00:27;;;;;;;7.05;5.85;;;;;;;10.06;79.99;99877.13;3503961;78;21382;-84
2022/09/19 16:05:27;;;;;;;7.08;6.37;;;;;;;10.04;80.13;99873.66;3492015;78;21137;-84
2022/09/19 16:10:20;;;;;;;8.65;6.37;;;;;;;10.04;80.31;99879.30;3549385;78;22062;-85
2022/09/19 16:15:32;;;;;;;9.40;6.30;;;;;;;10.00;80.63;99880.14;3555788;77;21060;-85
2022/09/19 16:20:36;;;;;;;9.13;6.12;;;;;;;9.91;80.38;99879.22;3490286;78;20951;-86
2022/09/19 16:25:53;;;;;;;7.22;5.50;;;;;;;9.86;80.63;99880.91;3551898;78;21486;-87
2022/09/19 16:31:05;;;;;;;7.03;6.33;;;;;;;9.86;80.63;99880.91;3476885;78;48336;-85
2022/09/19 16:36:00;;;;;;;7.33;6.20;;;;;;;9.88;81.04;99889.58;3510462;78;21525;-86
2022/09/19 16:41:02;;;;;;;7.17;5.90;;;;;;;9.90;81.32;99900.84;3523590;79;21084;-91
2022/09/19 16:45:51;;;;;;;7.65;5.80;;;;;;;9.90;81.32;99900.84;3541263;77;21002;-88
2022/09/19 16:50:42;;;;;;;8.63;6.55;;;;;;;9.90;81.35;99901.27;3515598;78;20908;-88
2022/09/19 16:55:41;;;;;;;8.60;6.47;;;;;;;9.88;81.17;99914.23;3468469;80;21527;-86
2022/09/19 17:00:32;;;;;;;8.93;6.95;;;;;;;9.88;81.50;99912.94;3462645;78;21180;-91
2022/09/19 17:05:32;;;;;;;6.80;6.10;;;;;;;9.86;81.48;99909.47;3580955;78;21570;-90
2022/09/19 17:10:27;;;;;;;8.05;6.75;;;;;;;9.85;81.55;99914.66;3548112;77;21005;-94
2022/09/19 17:15:45;;;;;;;7.78;6.67;;;;;;;9.85;81.64;99923.30;3472460;79;21619;-90
2022/09/19 17:20:41;;;;;;;9.00;6.78;;;;;;;9.84;81.77;99925.91;3499597;79;21726;-85
2022/09/19 17:25:54;;;;;;;9.85;5.97;;;;;;;9.83;81.76;99930.21;3487549;79;21910;-87
2022/09/19 17:30:48;;;;;;;6.97;5.78;;;;;;;9.82;81.76;99924.59;3529092;78;21523;-87
2022/09/19 17:35:41;;;;;;;7.70;6.60;;;;;;;9.82;81.93;99925.00;3495410;79;20962;-88
2022/09/19 17:40:35;;;;;;;8.45;6.30;;;;;;;9.81;82.00;99930.63;3541898;78;21012;-88
2022/09/19 17:45:25;;;;;;;12.55;7.20;;;;;;;9.80;81.92;99945.79;3512916;78;20980;-87
2022/09/19 17:50:16;;;;;;;9.40;7.75;;;;;;;9.80;82.09;99944.89;3474073;78;21188;-88
2022/09/19 17:55:08;;;;;;;10.48;7.58;;;;;;;9.80;82.03;99948.39;3466012;78;21005;-87
2022/09/19 18:00:00;;;;;;;11.70;8.48;;;;;;;9.80;81.99;99948.39;3560978;78;21055;-87
2022/09/19 18:04:51;;;;;;;13.83;7.90;;;;;;;9.80;82.07;99948.39;3465546;79;20994;-87
2022/09/19 18:09:42;;;;;;;9.70;8.23;;;;;;;9.82;82.24;99949.27;3473410;80;21556;-87
2022/09/19 18:14:33;;;;;;;12.18;9.13;;;;;;;9.84;82.32;99952.73;3459096;80;21057;-87
2022/09/19 18:19:24;;;;;;;12.13;9.15;;;;;;;9.84;82.33;99951.44;3528729;79;20940;-87
2022/09/19 18:24:15;;;;;;;8.80;7.67;;;;;;;9.87;82.35;99949.28;3532529;79;21425;-89
2022/09/19 18:29:09;;;;;;;8.75;7.62;;;;;;;9.87;82.41;99946.69;3534888;79;20997;-91
2022/09/19 18:34:00;;;;;;;9.20;7.28;;;;;;;9.83;82.43;99940.59;3438283;80;20927;-91
2022/09/19 18:38:52;;;;;;;9.55;7.90;;;;;;;9.88;82.41;99943.24;3442257;79;21504;-91
2022/09/19 18:43:43;;;;;;;9.03;7.05;;;;;;;9.88;82.41;99943.24;3504298;79;21959;-91
2022/09/19 18:48:34;;;;;;;9.65;7.85;;;;;;;9.80;82.60;99938.00;3470329;79;20993;-92
2022/09/19 18:53:26;;;;;;;10.70;7.67;;;;;;;9.88;82.57;99951.03;3417748;80;20975;-91
2022/09/19 18:58:19;;;;;;;10.93;8.20;;;;;;;9.88;82.68;99948.00;3458728;79;21019;-91
2022/09/19 19:03:11;;;;;;;9.38;7.80;;;;;;;9.90;82.77;99956.66;3479724;78;21883;-91
2022/09/19 19:08:02;;;;;;;10.20;8.10;;;;;;;9.90;82.77;99956.66;3510187;78;21224;-90
2022/09/19 19:12:54;;;;;;;11.05;9.55;;;;;;;9.87;82.78;99952.77;3519301;78;20987;-91
2022/09/19 19:17:46;;;;;;;9.75;8.65;;;;;;;9.90;82.67;99951.47;3495716;78;20962;-90
2022/09/19 19:22:37;;;;;;;11.40;9.48;;;;;;;9.90;82.67;99951.47;3526693;79;21490;-90
2022/09/19 19:27:28;;;;;;;9.83;8.80;;;;;;;9.91;82.85;99959.71;3517594;78;21019;-90
2022/09/19 19:32:22;;;;;;;11.78;9.75;;;;;;;9.95;83.11;99960.61;3610629;77;21216;-90
2022/09/19 19:37:12;;;;;;;10.72;8.95;;;;;;;9.95;83.11;99960.61;3617941;76;20981;-90
2022/09/19 19:42:03;;;;;;;10.65;9.55;;;;;;;9.93;82.94;99967.08;3600877;77;20954;-90
2022/09/19 19:46:56;;;;;;;12.68;10.60;;;;;;;9.95;83.07;99967.53;3518822;77;21044;-90
2022/09/19 19:51:47;;;;;;;10.90;9.75;;;;;;;9.95;83.04;99960.61;3602139;77;21521;-90
2022/09/19 19:56:38;;;;;;;12.18;10.25;;;;;;;9.95;83.20;99970.13;3544016;78;21036;-90
2022/09/19 20:01:32;;;;;;;15.05;11.15;;;;;;;9.97;83.26;99977.50;3507840;78;21010;-91
2022/09/19 20:06:31;;;;;;;13.65;10.88;;;;;;;9.96;83.17;99973.15;3590085;77;20963;-90
2022/09/19 20:11:25;;;;;;;13.20;11.63;;;;;;;9.95;83.22;99979.22;3619141;77;20969;-90
2022/09/19 20:16:16;;;;;;;12.75;10.58;;;;;;;9.95;83.33;99977.48;3509264;77;21377;-90
2022/09/19 20:21:14;;;;;;;12.50;10.18;;;;;;;9.97;83.47;99978.80;3557730;78;20981;-90
2022/09/19 20:26:06;;;;;;;11.93;9.85;;;;;;;9.99;83.57;99979.23;3575998;78;20966;-90
2022/09/19 20:31:07;;;;;;;12.15;10.10;;;;;;;9.99;83.56;99980.53;3552989;78;21444;-90
2022/09/19 20:36:02;;;;;;;12.60;11.20;;;;;;;10.01;83.52;99983.15;3555027;77;21018;-90
2022/09/19 20:40:58;;;;;;;12.70;11.03;;;;;;;10.02;83.55;99977.11;3534185;77;22327;-90
2022/09/19 20:45:57;;;;;;;13.00;11.53;;;;;;;10.02;83.55;99977.11;3478750;79;21048;-90
2022/09/19 20:51:00;;;;;;;12.18;10.88;;;;;;;10.05;84.03;99975.81;3537954;78;21124;-90
2022/09/19 20:55:52;;;;;;;13.45;10.88;;;;;;;10.05;84.19;99968.02;3558028;77;21167;-90
2022/09/19 21:00:43;;;;;;;13.38;11.83;;;;;;;10.05;84.19;99968.02;3507953;77;21382;-90
2022/09/19 21:05:34;;;;;;;14.40;12.88;;;;;;;10.05;84.06;99974.52;3531397;77;21056;-90
2022/09/19 21:10:28;;;;;;;13.35;11.97;;;;;;;10.06;84.14;99971.07;3477494;79;21662;-91
2022/09/19 21:15:18;;;;;;;12.18;10.95;;;;;;;10.08;84.21;99974.55;3534405;79;20940;-90
2022/09/19 21:20:10;;;;;;;16.00;12.20;;;;;;;10.04;84.15;99975.39;3521792;79;20995;-90
2022/09/19 21:25:01;;;;;;;14.95;12.73;;;;;;;10.04;84.15;99975.39;3455532;79;20981;-91
2022/09/19 21:29:52;;;;;;;15.38;11.30;;;;;;;10.02;84.37;99983.60;3520875;77;21769;-90
2022/09/19 21:34:44;;;;;;;14.18;12.10;;;;;;;10.00;84.46;99981.43;3528371;77;20964;-91
2022/09/19 21:39:35;;;;;;;12.95;11.73;;;;;;;10.00;84.46;99981.43;3537576;77;20895;-94
2022/09/19 21:44:26;;;;;;;14.90;13.13;;;;;;;9.98;84.55;99985.71;3540708;77;22151;-96
2022/09/19 21:49:17;;;;;;;15.98;13.58;;;;;;;9.99;84.69;99977.94;3471030;79;21742;-94
2022/09/19 21:54:10;;;;;;;17.42;15.58;;;;;;;9.92;84.77;99978.31;3498358;79;21742;-95
2022/09/19 21:59:04;;;;;;;15.95;14.33;;;;;;;9.86;85.09;99974.38;3520202;79;21007;-94
2022/09/19 22:03:57;;;;;;;17.45;15.68;;;;;;;9.84;84.85;99976.10;3466677;79;20967;-93
2022/09/19 22:08:51;;;;;;;17.87;15.98;;;;;;;9.88;84.83;99982.19;3478215;80;21078;-94
2022/09/19 22:13:43;;;;;;;17.75;16.00;;;;;;;9.88;84.83;99982.19;3444651;80;20994;-94
2022/09/19 22:18:35;;;;;;;17.48;15.68;;;;;;;9.87;85.02;99985.22;3419759;80;21508;-92
2022/09/19 22:23:33;;;;;;;18.27;16.32;;;;;;;9.81;85.08;99978.66;3410448;80;21013;-92
2022/09/19 22:28:32;;;;;;;16.80;14.70;;;;;;;9.82;85.07;99983.02;3452472;80;20982;-93
2022/09/19 22:33:23;;;;;;;17.00;15.30;;;;;;;9.79;84.97;99990.77;3443733;80;21017;-94
